WetterOnline ( http://www.wetteronline.de )

Wetter aktuell Neubrandenburg

Aktuelles Wetter: Waren (71m)

6-stündlich | Neueste Meldungen
Ortszeit Temperatur Wetter
Fr, 16.11. 1:00 6.0° C leicht bewölkt
Do, 15.11. 19:00 7.5° C wolkenlos
Do, 15.11. 13:00 10.4° C fast wolkenlos
Do, 15.11. 7:00 6.8° C wolkig
Do, 15.11. 1:00 7.5° C bewölkt
Mi, 14.11. 19:00 8.2° C bewölkt
Mi, 14.11. 13:00 8.0° C bewölkt
Mi, 14.11. 7:00 8.4° C bedeckt
Ortszeit Temperatur Wetter
Fr, 16.11. 5:30 5.4° C leicht bewölkt
Fr, 16.11. 5:20 5.4° C leicht bewölkt
Fr, 16.11. 5:10 5.4° C wolkenlos
Fr, 16.11. 5:00 5.4° C wolkenlos
Fr, 16.11. 4:50 5.4° C wolkenlos
Fr, 16.11. 4:40 5.4° C fast wolkenlos
Fr, 16.11. 4:30 5.7° C wolkig
Fr, 16.11. 4:00 5.5° C wolkig
Fr, 16.11. 3:30 5.7° C wolkig
Fr, 16.11. 3:00 5.7° C wolkig
Fr, 16.11. 2:30 5.8° C leicht bewölkt
Ortszeit Relative Feuchte Sichtweite
Fr, 16.11. 1:00 80% 27 km
Do, 15.11. 19:00 84% 8 km
Do, 15.11. 13:00 73% 28 km
Do, 15.11. 7:00 94% 10 km
Do, 15.11. 1:00 95% 7 km
Mi, 14.11. 19:00 91% 12 km
Mi, 14.11. 13:00 87% 17 km
Mi, 14.11. 7:00 88% 18 km
Ortszeit Relative Feuchte Sichtweite
Fr, 16.11. 5:30 76% 35 km
Fr, 16.11. 5:20 76% -
Fr, 16.11. 5:10 76% -
Fr, 16.11. 5:00 76% 30 km
Fr, 16.11. 4:50 76% -
Fr, 16.11. 4:40 76% -
Fr, 16.11. 4:30 76% 30 km
Fr, 16.11. 4:00 78% 30 km
Fr, 16.11. 3:30 78% 30 km
Fr, 16.11. 3:00 79% 29 km
Fr, 16.11. 2:30 80% 25 km
Ortszeit Niederschlagsmenge Niederschlagsart
Fr, 16.11. 1:00 0.0 l/m2 in 6 Std. -
Do, 15.11. 19:00 0.0 l/m2 in 12 Std. -
Do, 15.11. 13:00 0.0 l/m2 in 6 Std. -
Do, 15.11. 7:00 0.0 l/m2 in 12 Std. -
Do, 15.11. 1:00 0.0 l/m2 in 6 Std. -
Mi, 14.11. 19:00 0.0 l/m2 in 12 Std. -
Mi, 14.11. 13:00 0.0 l/m2 in 6 Std. -
Mi, 14.11. 7:00 0.1 l/m2 in 12 Std. -
Ortszeit Niederschlagsmenge Niederschlagsart
Fr, 16.11. 5:30 0.0 l/m2 in 1 Std. -
Fr, 16.11. 5:20 keine Meldung -
Fr, 16.11. 5:10 keine Meldung -
Fr, 16.11. 5:00 0.0 l/m2 in 1 Std. -
Fr, 16.11. 4:50 keine Meldung -
Fr, 16.11. 4:40 keine Meldung -
Fr, 16.11. 4:30 0.0 l/m2 in 1 Std. -
Fr, 16.11. 4:00 0.0 l/m2 in 1 Std. -
Fr, 16.11. 3:30 0.0 l/m2 in 1 Std. -
Fr, 16.11. 3:00 0.0 l/m2 in 1 Std. -
Fr, 16.11. 2:30 0.0 l/m2 in 1 Std. -
Ortszeit Stärke Spitze Richtung
km/h Bft. km/h Grad Sektor
Fr, 16.11. 1:00 17 3 33 150° SO
Do, 15.11. 19:00 11 2 25 120° SO
Do, 15.11. 13:00 13 3 20 160° S
Do, 15.11. 7:00 4 1 14 150° SO
Do, 15.11. 1:00 7 2 17 160° S
Mi, 14.11. 19:00 9 2 22 200° S
Mi, 14.11. 13:00 9 2 26 230° SW
Mi, 14.11. 7:00 11 2 32 250° W
Ortszeit Stärke Spitze Richtung
km/h Bft. km/h Grad Sektor
Fr, 16.11. 5:30 15 3 28 150° SO
Fr, 16.11. 5:20 15 3 - 150° SO
Fr, 16.11. 5:10 14 3 - 150° SO
Fr, 16.11. 5:00 14 3 29 150° SO
Fr, 16.11. 4:50 14 3 - 150° SO
Fr, 16.11. 4:40 13 3 - 150° SO
Fr, 16.11. 4:30 17 3 26 140° SO
Fr, 16.11. 4:00 14 3 25 140° SO
Fr, 16.11. 3:30 13 3 24 140° SO
Fr, 16.11. 3:00 13 3 24 140° SO
Fr, 16.11. 2:30 13 3 20 150° SO
Ortszeit Untergrenze Bedeckung Gattung
total tief tief mittel hoch
Fr, 16.11. 1:00 12000 m 4/8 0/8 - - -
Do, 15.11. 19:00 - 0/8 0/8 - - -
Do, 15.11. 13:00 10500 m 2/8 0/8 - - -
Do, 15.11. 7:00 2700 m 8/8 3/8 - - -
Do, 15.11. 1:00 2700 m 8/8 7/8 - - -
Mi, 14.11. 19:00 210 m 8/8 4/8 - - -
Mi, 14.11. 13:00 210 m 8/8 7/8 - - -
Mi, 14.11. 7:00 300 m 8/8 8/8 - - -
Ortszeit Bedeckungsgrad in Achtel und Wolkenuntergrenze
Fr, 16.11. 5:30 3(10500m)
Fr, 16.11. 5:20 3(10500m)
Fr, 16.11. 5:10 keine Wolken
Fr, 16.11. 5:00 keine Wolken
Fr, 16.11. 4:50 keine Wolken
Fr, 16.11. 4:40 2(10500m)
Fr, 16.11. 4:30 7(10500m)
Fr, 16.11. 4:00 8(10500m)
Fr, 16.11. 3:30 8(10500m)
Fr, 16.11. 3:00 8(10500m)
Fr, 16.11. 2:30 3(10500m) 6(12000m)
Ortszeit Luftdruck NN (hPa) Tendenz (hPa in 3 Std.)
Fr, 16.11. 1:00 1033 + 0,7
Do, 15.11. 19:00 1031 + 0,4
Do, 15.11. 13:00 1030 - 0,2
Do, 15.11. 7:00 1030 + 0,1
Do, 15.11. 1:00 1030 0,0
Mi, 14.11. 19:00 1029 - 0,3
Mi, 14.11. 13:00 1030 + 0,8
Mi, 14.11. 7:00 1027 + 0,8
Ortszeit Luftdruck NN (hPa) Tendenz (hPa in 3 Std.)
Fr, 16.11. 5:30 1033 + 0,3
Fr, 16.11. 5:20 1033 keine Meldung
Fr, 16.11. 5:10 1034 keine Meldung
Fr, 16.11. 5:00 1034 + 0,4
Fr, 16.11. 4:50 1034 keine Meldung
Fr, 16.11. 4:40 1033 keine Meldung
Fr, 16.11. 4:30 1033 + 0,2
Fr, 16.11. 4:00 1033 + 0,5
Fr, 16.11. 3:30 1033 + 0,6
Fr, 16.11. 3:00 1033 + 0,6
Fr, 16.11. 2:30 1033 + 0,8
Ortszeit Schneehöhe (cm)
Fr, 16.11. 1:00 0
Do, 15.11. 19:00 0
Do, 15.11. 13:00 0
Do, 15.11. 7:00 0
Do, 15.11. 1:00 0
Mi, 14.11. 19:00 0
Mi, 14.11. 13:00 0
Mi, 14.11. 7:00 0
Ortszeit Schneehöhe (cm)
Fr, 16.11. 5:30 0
Fr, 16.11. 5:20 0
Fr, 16.11. 5:10 0
Fr, 16.11. 5:00 0
Fr, 16.11. 4:50 0
Fr, 16.11. 4:40 0
Fr, 16.11. 4:30 0
Fr, 16.11. 4:00 0
Fr, 16.11. 3:30 0
Fr, 16.11. 3:00 0
Fr, 16.11. 2:30 0
Link zu dieser Seite / Seite empfehlen

Das Wetter in ...